sensor_id;sensor_type;location;lat;lon;timestamp;pressure;altitude;pressure_sealevel;temperature;humidity
58373;BME280;44177;43.356;27.672;2022-10-18T00:00:39;99745.56;;;16.26;47.35
58373;BME280;44177;43.356;27.672;2022-10-18T00:03:05;99758.28;;;16.31;47.24
58373;BME280;44177;43.356;27.672;2022-10-18T00:05:30;99760.22;;;16.30;47.53
58373;BME280;44177;43.356;27.672;2022-10-18T00:07:56;99757.47;;;16.30;47.21
58373;BME280;44177;43.356;27.672;2022-10-18T00:10:22;99742.91;;;16.30;47.29
58373;BME280;44177;43.356;27.672;2022-10-18T00:12:49;99750.38;;;16.29;47.33
58373;BME280;44177;43.356;27.672;2022-10-18T00:15:14;99750.38;;;16.29;47.50
58373;BME280;44177;43.356;27.672;2022-10-18T00:17:39;99741.31;;;16.29;47.38
58373;BME280;44177;43.356;27.672;2022-10-18T00:20:06;99737.75;;;16.28;47.40
58373;BME280;44177;43.356;27.672;2022-10-18T00:22:34;99730.53;;;16.23;47.29
58373;BME280;44177;43.356;27.672;2022-10-18T00:24:59;99729.50;;;16.28;47.55
58373;BME280;44177;43.356;27.672;2022-10-18T00:27:28;99730.66;;;16.27;47.68
58373;BME280;44177;43.356;27.672;2022-10-18T00:29:53;99725.94;;;16.27;47.23
58373;BME280;44177;43.356;27.672;2022-10-18T00:32:19;99737.75;;;16.28;47.49
58373;BME280;44177;43.356;27.672;2022-10-18T00:34:44;99725.94;;;16.27;47.52
58373;BME280;44177;43.356;27.672;2022-10-18T00:37:10;99722.38;;;16.27;47.33
58373;BME280;44177;43.356;27.672;2022-10-18T00:39:35;99727.88;;;16.27;47.55
58373;BME280;44177;43.356;27.672;2022-10-18T00:42:01;99730.66;;;16.27;47.30
58373;BME280;44177;43.356;27.672;2022-10-18T00:46:57;99733.41;;;16.27;47.35
58373;BME280;44177;43.356;27.672;2022-10-18T00:49:27;99734.53;;;16.26;47.63
58373;BME280;44177;43.356;27.672;2022-10-18T00:51:57;99733.75;;;16.25;47.50
58373;BME280;44177;43.356;27.672;2022-10-18T00:54:24;99724.56;;;16.21;47.53
58373;BME280;44177;43.356;27.672;2022-10-18T00:56:50;99729.03;;;16.26;47.32
58373;BME280;44177;43.356;27.672;2022-10-18T00:59:17;99724.66;;;16.25;47.42
58373;BME280;44177;43.356;27.672;2022-10-18T01:01:44;99716.41;;;16.25;47.26
58373;BME280;44177;43.356;27.672;2022-10-18T01:04:11;99715.63;;;16.24;47.39
58373;BME280;44177;43.356;27.672;2022-10-18T01:07:04;99715.63;;;16.24;47.26
58373;BME280;44177;43.356;27.672;2022-10-18T01:09:40;99723.88;;;16.24;47.50
58373;BME280;44177;43.356;27.672;2022-10-18T01:14:58;99725.81;;;16.24;47.59
58373;BME280;44177;43.356;27.672;2022-10-18T01:22:50;99706.09;;;16.22;47.59
58373;BME280;44177;43.356;27.672;2022-10-18T01:31:02;99704.50;;;16.21;47.67
58373;BME280;44177;43.356;27.672;2022-10-18T01:33:47;99706.44;;;16.20;47.35
58373;BME280;44177;43.356;27.672;2022-10-18T01:36:30;99700.56;;;16.22;47.19
58373;BME280;44177;43.356;27.672;2022-10-18T01:38:58;99700.56;;;16.22;47.38
58373;BME280;44177;43.356;27.672;2022-10-18T01:41:27;99690.75;;;16.21;47.28
58373;BME280;44177;43.356;27.672;2022-10-18T01:43:57;99693.50;;;16.21;47.27
58373;BME280;44177;43.356;27.672;2022-10-18T01:46:24;99692.69;;;16.20;47.33
58373;BME280;44177;43.356;27.672;2022-10-18T01:48:51;99699.00;;;16.21;47.21
58373;BME280;44177;43.356;27.672;2022-10-18T01:51:23;99696.56;;;16.19;47.45
58373;BME280;44177;43.356;27.672;2022-10-18T01:53:49;99696.56;;;16.19;47.42
58373;BME280;44177;43.356;27.672;2022-10-18T02:04:35;99689.13;;;16.20;47.52
58373;BME280;44177;43.356;27.672;2022-10-18T02:07:26;99684.78;;;16.19;47.64
58373;BME280;44177;43.356;27.672;2022-10-18T02:12:52;99693.38;;;16.17;47.56
58373;BME280;44177;43.356;27.672;2022-10-18T02:15:23;99681.44;;;16.13;47.57
58373;BME280;44177;43.356;27.672;2022-10-18T02:17:52;99693.38;;;16.17;47.40
58373;BME280;44177;43.356;27.672;2022-10-18T02:20:21;99695.31;;;16.17;47.23
58373;BME280;44177;43.356;27.672;2022-10-18T02:22:49;99689.81;;;16.17;47.31
58373;BME280;44177;43.356;27.672;2022-10-18T02:25:24;99686.28;;;16.16;47.47
58373;BME280;44177;43.356;27.672;2022-10-18T02:27:51;99681.56;;;16.17;47.16
58373;BME280;44177;43.356;27.672;2022-10-18T02:30:17;99681.56;;;16.17;47.41
58373;BME280;44177;43.356;27.672;2022-10-18T02:35:25;99692.56;;;16.17;47.19
58373;BME280;44177;43.356;27.672;2022-10-18T02:37:53;99687.06;;;16.17;47.43
58373;BME280;44177;43.356;27.672;2022-10-18T02:40:21;99685.47;;;16.16;47.27
58373;BME280;44177;43.356;27.672;2022-10-18T02:42:50;99686.28;;;16.16;47.43
58373;BME280;44177;43.356;27.672;2022-10-18T02:45:18;99687.88;;;16.17;47.35
58373;BME280;44177;43.356;27.672;2022-10-18T02:47:44;99681.44;;;16.13;47.36
58373;BME280;44177;43.356;27.672;2022-10-18T02:50:09;99677.66;;;16.18;47.17
58373;BME280;44177;43.356;27.672;2022-10-18T02:52:35;99674.91;;;16.18;47.50
58373;BME280;44177;43.356;27.672;2022-10-18T02:55:00;99671.25;;;16.14;47.32
58373;BME280;44177;43.356;27.672;2022-10-18T02:57:26;99670.53;;;16.17;47.51
58373;BME280;44177;43.356;27.672;2022-10-18T02:59:52;99680.78;;;16.16;46.98
58373;BME280;44177;43.356;27.672;2022-10-18T03:02:17;99674.81;;;16.14;47.21
58373;BME280;44177;43.356;27.672;2022-10-18T03:04:43;99675.59;;;16.15;47.54
58373;BME280;44177;43.356;27.672;2022-10-18T03:07:08;99671.25;;;16.14;47.19
58373;BME280;44177;43.356;27.672;2022-10-18T03:09:34;99673.66;;;16.15;47.02
58373;BME280;44177;43.356;27.672;2022-10-18T03:11:59;99678.34;;;16.15;47.15
58373;BME280;44177;43.356;27.672;2022-10-18T03:14:25;99674.44;;;16.16;47.03
58373;BME280;44177;43.356;27.672;2022-10-18T03:16:50;99676.75;;;16.14;47.44
58373;BME280;44177;43.356;27.672;2022-10-18T03:19:16;99680.31;;;16.14;47.04
58373;BME280;44177;43.356;27.672;2022-10-18T03:21:41;99682.69;;;16.16;47.42
58373;BME280;44177;43.356;27.672;2022-10-18T03:24:06;99658.53;;;16.09;47.36
58373;BME280;44177;43.356;27.672;2022-10-18T03:26:32;99679.94;;;16.16;47.50
58373;BME280;44177;43.356;27.672;2022-10-18T03:28:57;99672.41;;;16.13;47.31
58373;BME280;44177;43.356;27.672;2022-10-18T03:31:23;99664.56;;;16.15;47.14
58373;BME280;44177;43.356;27.672;2022-10-18T03:33:48;99661.81;;;16.15;46.97
58373;BME280;44177;43.356;27.672;2022-10-18T03:36:14;99668.94;;;16.16;47.02
58373;BME280;44177;43.356;27.672;2022-10-18T03:38:39;99674.44;;;16.16;47.34
58373;BME280;44177;43.356;27.672;2022-10-18T03:41:05;99679.94;;;16.16;47.35
58373;BME280;44177;43.356;27.672;2022-10-18T03:43:30;99670.09;;;16.15;46.96
58373;BME280;44177;43.356;27.672;2022-10-18T03:45:56;99669.19;;;16.10;47.09
58373;BME280;44177;43.356;27.672;2022-10-18T03:48:21;99661.03;;;16.14;47.30
58373;BME280;44177;43.356;27.672;2022-10-18T03:50:47;99668.50;;;16.14;47.21
58373;BME280;44177;43.356;27.672;2022-10-18T03:53:12;99654.59;;;16.10;47.21
58373;BME280;44177;43.356;27.672;2022-10-18T03:55:38;99665.41;;;16.15;46.94
58373;BME280;44177;43.356;27.672;2022-10-18T03:58:04;99665.41;;;16.15;47.17
58373;BME280;44177;43.356;27.672;2022-10-18T04:00:30;99665.41;;;16.15;47.32
58373;BME280;44177;43.356;27.672;2022-10-18T04:02:55;99668.16;;;16.15;47.16
58373;BME280;44177;43.356;27.672;2022-10-18T04:05:21;99660.69;;;16.16;47.38
58373;BME280;44177;43.356;27.672;2022-10-18T04:07:48;99664.56;;;16.15;47.26
58373;BME280;44177;43.356;27.672;2022-10-18T04:10:14;99662.66;;;16.15;46.92
58373;BME280;44177;43.356;27.672;2022-10-18T04:12:39;99668.16;;;16.15;47.20
58373;BME280;44177;43.356;27.672;2022-10-18T04:15:05;99672.03;;;16.14;47.00
58373;BME280;44177;43.356;27.672;2022-10-18T04:17:31;99670.44;;;16.13;47.15
58373;BME280;44177;43.356;27.672;2022-10-18T04:19:56;99662.19;;;16.13;47.26
58373;BME280;44177;43.356;27.672;2022-10-18T04:22:22;99664.16;;;16.13;47.33
58373;BME280;44177;43.356;27.672;2022-10-18T04:24:47;99669.28;;;16.14;47.30
58373;BME280;44177;43.356;27.672;2022-10-18T04:27:13;99663.00;;;16.14;46.82
58373;BME280;44177;43.356;27.672;2022-10-18T04:29:38;99664.16;;;16.13;47.08
58373;BME280;44177;43.356;27.672;2022-10-18T04:32:04;99658.66;;;16.13;47.30
58373;BME280;44177;43.356;27.672;2022-10-18T04:34:29;99657.81;;;16.12;46.90
58373;BME280;44177;43.356;27.672;2022-10-18T04:36:54;99658.66;;;16.13;47.13
58373;BME280;44177;43.356;27.672;2022-10-18T04:39:20;99640.31;;;16.04;46.94
58373;BME280;44177;43.356;27.672;2022-10-18T04:41:46;99657.81;;;16.12;47.01
58373;BME280;44177;43.356;27.672;2022-10-18T04:44:11;99644.31;;;16.07;47.20
58373;BME280;44177;43.356;27.672;2022-10-18T04:46:36;99656.22;;;16.11;47.27
58373;BME280;44177;43.356;27.672;2022-10-18T04:49:02;99656.13;;;16.07;47.26
58373;BME280;44177;43.356;27.672;2022-10-18T04:51:28;99658.19;;;16.10;46.96
58373;BME280;44177;43.356;27.672;2022-10-18T04:53:53;99661.72;;;16.11;47.20
58373;BME280;44177;43.356;27.672;2022-10-18T04:56:19;99654.50;;;16.06;47.13
58373;BME280;44177;43.356;27.672;2022-10-18T04:58:44;99653.34;;;16.07;47.00
58373;BME280;44177;43.356;27.672;2022-10-18T05:01:10;99663.22;;;16.08;46.91
58373;BME280;44177;43.356;27.672;2022-10-18T05:03:35;99657.03;;;16.12;46.90
58373;BME280;44177;43.356;27.672;2022-10-18T05:06:01;99660.13;;;16.10;47.14
58373;BME280;44177;43.356;27.672;2022-10-18T05:08:26;99663.69;;;16.10;47.03
58373;BME280;44177;43.356;27.672;2022-10-18T05:10:52;99660.94;;;16.10;47.13
58373;BME280;44177;43.356;27.672;2022-10-18T05:13:17;99664.47;;;16.11;47.00
58373;BME280;44177;43.356;27.672;2022-10-18T05:15:45;99658.97;;;16.11;47.20
58373;BME280;44177;43.356;27.672;2022-10-18T05:18:10;99663.69;;;16.10;46.85
58373;BME280;44177;43.356;27.672;2022-10-18T05:20:36;99652.69;;;16.10;47.05
58373;BME280;44177;43.356;27.672;2022-10-18T05:23:01;99646.59;;;16.05;47.12
58373;BME280;44177;43.356;27.672;2022-10-18T05:25:27;99658.19;;;16.10;46.92
58373;BME280;44177;43.356;27.672;2022-10-18T05:27:52;99660.94;;;16.10;46.90
58373;BME280;44177;43.356;27.672;2022-10-18T05:30:18;99663.69;;;16.10;47.26
58373;BME280;44177;43.356;27.672;2022-10-18T05:32:44;99662.88;;;16.10;46.93
58373;BME280;44177;43.356;27.672;2022-10-18T05:35:10;99664.84;;;16.09;47.04
58373;BME280;44177;43.356;27.672;2022-10-18T05:37:35;99660.13;;;16.10;47.06
58373;BME280;44177;43.356;27.672;2022-10-18T05:40:01;99666.44;;;16.10;46.99
58373;BME280;44177;43.356;27.672;2022-10-18T05:42:26;99664.84;;;16.09;47.33
58373;BME280;44177;43.356;27.672;2022-10-18T05:44:52;99665.63;;;16.10;47.32
58373;BME280;44177;43.356;27.672;2022-10-18T05:47:17;99664.84;;;16.09;47.24
58373;BME280;44177;43.356;27.672;2022-10-18T05:49:42;99657.72;;;16.08;47.29
58373;BME280;44177;43.356;27.672;2022-10-18T05:52:08;99669.53;;;16.09;46.92
58373;BME280;44177;43.356;27.672;2022-10-18T05:54:33;99664.03;;;16.09;47.07
58373;BME280;44177;43.356;27.672;2022-10-18T05:56:59;99668.72;;;16.08;47.11
58373;BME280;44177;43.356;27.672;2022-10-18T05:59:24;99658.75;;;16.04;47.30
58373;BME280;44177;43.356;27.672;2022-10-18T06:01:50;99670.78;;;16.12;46.99
58373;BME280;44177;43.356;27.672;2022-10-18T06:04:15;99664.16;;;16.13;47.03
58373;BME280;44177;43.356;27.672;2022-10-18T06:06:42;99664.25;;;16.16;47.03
58373;BME280;44177;43.356;27.672;2022-10-18T06:09:08;99649.81;;;16.07;46.88
58373;BME280;44177;43.356;27.672;2022-10-18T06:11:34;99666.66;;;16.18;47.07
58373;BME280;44177;43.356;27.672;2022-10-18T06:14:00;99679.38;;;16.22;47.14
58373;BME280;44177;43.356;27.672;2022-10-18T06:16:26;99669.50;;;16.21;47.24
58373;BME280;44177;43.356;27.672;2022-10-18T06:18:54;99666.75;;;16.21;46.72
58373;BME280;44177;43.356;27.672;2022-10-18T06:21:21;99676.97;;;16.21;47.02
58373;BME280;44177;43.356;27.672;2022-10-18T06:23:51;99680.88;;;16.20;47.04
58373;BME280;44177;43.356;27.672;2022-10-18T06:26:17;99674.53;;;16.19;47.01
58373;BME280;44177;43.356;27.672;2022-10-18T06:28:43;99676.16;;;16.20;47.03
58373;BME280;44177;43.356;27.672;2022-10-18T06:31:09;99675.38;;;16.20;47.14
58373;BME280;44177;43.356;27.672;2022-10-18T06:33:35;99667.91;;;16.20;47.12
58373;BME280;44177;43.356;27.672;2022-10-18T06:36:10;99669.88;;;16.20;47.25
58373;BME280;44177;43.356;27.672;2022-10-18T06:38:35;99667.34;;;16.15;47.09
58373;BME280;44177;43.356;27.672;2022-10-18T06:41:01;99673.41;;;16.20;46.90
58373;BME280;44177;43.356;27.672;2022-10-18T06:43:27;99671.47;;;16.21;47.11
58373;BME280;44177;43.356;27.672;2022-10-18T06:45:53;99670.66;;;16.20;46.92
58373;BME280;44177;43.356;27.672;2022-10-18T06:48:19;99662.03;;;16.22;47.20
58373;BME280;44177;43.356;27.672;2022-10-18T06:50:53;99663.63;;;16.23;47.11
58373;BME280;44177;43.356;27.672;2022-10-18T06:53:19;99659.75;;;16.24;46.96
58373;BME280;44177;43.356;27.672;2022-10-18T06:55:45;99657.44;;;16.26;47.25
58373;BME280;44177;43.356;27.672;2022-10-18T06:58:11;99666.16;;;16.28;46.82
58373;BME280;44177;43.356;27.672;2022-10-18T07:00:36;99660.31;;;16.30;46.67
58373;BME280;44177;43.356;27.672;2022-10-18T07:03:02;99656.88;;;16.33;47.02
58373;BME280;44177;43.356;27.672;2022-10-18T07:05:27;99660.41;;;16.33;46.99
58373;BME280;44177;43.356;27.672;2022-10-18T07:07:53;99665.91;;;16.33;46.92
58373;BME280;44177;43.356;27.672;2022-10-18T07:10:18;99660.03;;;16.35;46.55
58373;BME280;44177;43.356;27.672;2022-10-18T07:12:43;99662.47;;;16.36;47.03
58373;BME280;44177;43.356;27.672;2022-10-18T07:15:09;99661.31;;;16.37;47.03
58373;BME280;44177;43.356;27.672;2022-10-18T07:17:35;99660.16;;;16.38;46.62
58373;BME280;44177;43.356;27.672;2022-10-18T07:20:01;99661.75;;;16.39;46.82
58373;BME280;44177;43.356;27.672;2022-10-18T07:22:28;99653.75;;;16.34;46.95
58373;BME280;44177;43.356;27.672;2022-10-18T07:24:54;99659.91;;;16.44;46.89
58373;BME280;44177;43.356;27.672;2022-10-18T07:27:20;99660.69;;;16.44;46.65
58373;BME280;44177;43.356;27.672;2022-10-18T07:29:45;99657.59;;;16.46;46.69
58373;BME280;44177;43.356;27.672;2022-10-18T07:32:13;99659.66;;;16.49;46.46
58373;BME280;44177;43.356;27.672;2022-10-18T07:34:38;99658.50;;;16.50;46.88
58373;BME280;44177;43.356;27.672;2022-10-18T07:37:03;99660.13;;;16.51;46.51
58373;BME280;44177;43.356;27.672;2022-10-18T07:39:29;99656.63;;;16.54;46.77
58373;BME280;44177;43.356;27.672;2022-10-18T07:41:54;99651.59;;;16.56;46.58
58373;BME280;44177;43.356;27.672;2022-10-18T07:44:20;99650.09;;;16.58;46.26
58373;BME280;44177;43.356;27.672;2022-10-18T07:46:46;99649.84;;;16.64;46.27
58373;BME280;44177;43.356;27.672;2022-10-18T07:49:11;99645.22;;;16.68;46.06
58373;BME280;44177;43.356;27.672;2022-10-18T07:51:36;99638.19;;;16.70;46.33
58373;BME280;44177;43.356;27.672;2022-10-18T07:54:02;99634.28;;;16.71;46.09
58373;BME280;44177;43.356;27.672;2022-10-18T07:56:28;99634.38;;;16.75;46.11
58373;BME280;44177;43.356;27.672;2022-10-18T07:58:54;99637.22;;;16.79;46.06
58373;BME280;44177;43.356;27.672;2022-10-18T08:01:22;99634.47;;;16.79;46.15
58373;BME280;44177;43.356;27.672;2022-10-18T08:03:48;99625.78;;;16.77;45.97
58373;BME280;44177;43.356;27.672;2022-10-18T08:06:16;99632.88;;;16.78;46.32
58373;BME280;44177;43.356;27.672;2022-10-18T08:08:43;99630.13;;;16.78;45.85
58373;BME280;44177;43.356;27.672;2022-10-18T08:11:17;99622.22;;;16.76;45.89
58373;BME280;44177;43.356;27.672;2022-10-18T08:13:43;99617.31;;;16.69;46.18
58373;BME280;44177;43.356;27.672;2022-10-18T08:16:11;99620.19;;;16.73;46.17
58373;BME280;44177;43.356;27.672;2022-10-18T08:18:37;99612.97;;;16.68;46.11
58373;BME280;44177;43.356;27.672;2022-10-18T08:21:05;99613.41;;;16.70;46.05
58373;BME280;44177;43.356;27.672;2022-10-18T08:23:31;99617.16;;;16.78;46.12
58373;BME280;44177;43.356;27.672;2022-10-18T08:26:00;99616.78;;;16.80;46.04
58373;BME280;44177;43.356;27.672;2022-10-18T08:28:26;99616.44;;;16.81;46.01
58373;BME280;44177;43.356;27.672;2022-10-18T08:30:51;99617.53;;;16.77;45.83
58373;BME280;44177;43.356;27.672;2022-10-18T08:33:17;99614.78;;;16.77;46.28
58373;BME280;44177;43.356;27.672;2022-10-18T08:35:42;99610.75;;;16.74;45.83
58373;BME280;44177;43.356;27.672;2022-10-18T08:38:08;99609.94;;;16.73;46.16
58373;BME280;44177;43.356;27.672;2022-10-18T08:40:41;99600.16;;;16.60;46.34
58373;BME280;44177;43.356;27.672;2022-10-18T08:43:24;99602.75;;;16.69;46.26
58373;BME280;44177;43.356;27.672;2022-10-18T08:45:53;99607.00;;;16.66;46.38
58373;BME280;44177;43.356;27.672;2022-10-18T08:50:57;99608.16;;;16.65;46.06
58373;BME280;44177;43.356;27.672;2022-10-18T08:53:28;99599.53;;;16.67;46.42
58373;BME280;44177;43.356;27.672;2022-10-18T08:56:04;99591.81;;;16.72;45.95
58373;BME280;44177;43.356;27.672;2022-10-18T08:58:31;99595.03;;;16.74;46.23
58373;BME280;44177;43.356;27.672;2022-10-18T09:09:43;99587.00;;;16.69;45.94
58373;BME280;44177;43.356;27.672;2022-10-18T09:24:11;99569.59;;;16.81;46.04
58373;BME280;44177;43.356;27.672;2022-10-18T09:26:45;99551.81;;;16.79;46.01
58373;BME280;44177;43.356;27.672;2022-10-18T09:32:09;99556.81;;;16.89;46.21
58373;BME280;44177;43.356;27.672;2022-10-18T09:37:15;99547.84;;;16.92;46.18
58373;BME280;44177;43.356;27.672;2022-10-18T09:39:42;99545.06;;;16.92;46.04
58373;BME280;44177;43.356;27.672;2022-10-18T09:42:16;99548.28;;;16.94;45.78
58373;BME280;44177;43.356;27.672;2022-10-18T09:44:47;99546.69;;;16.93;45.99
58373;BME280;44177;43.356;27.672;2022-10-18T09:47:23;99539.91;;;16.90;46.01
58373;BME280;44177;43.356;27.672;2022-10-18T09:49:59;99537.25;;;16.94;45.68
58373;BME280;44177;43.356;27.672;2022-10-18T09:52:38;99529.00;;;16.94;46.00
58373;BME280;44177;43.356;27.672;2022-10-18T09:55:16;99532.66;;;16.98;45.94
58373;BME280;44177;43.356;27.672;2022-10-18T09:57:48;99523.22;;;16.99;45.62
58373;BME280;44177;43.356;27.672;2022-10-18T10:00:20;99525.97;;;16.99;45.73
58373;BME280;44177;43.356;27.672;2022-10-18T10:02:46;99520.47;;;16.99;45.53
58373;BME280;44177;43.356;27.672;2022-10-18T10:05:13;99524.84;;;17.00;45.79
58373;BME280;44177;43.356;27.672;2022-10-18T10:07:45;99524.00;;;17.00;45.72
58373;BME280;44177;43.356;27.672;2022-10-18T10:10:24;99511.38;;;16.99;45.75
58373;BME280;44177;43.356;27.672;2022-10-18T10:13:06;99516.13;;;16.98;45.56
58373;BME280;44177;43.356;27.672;2022-10-18T10:15:53;99506.25;;;16.97;45.40
58373;BME280;44177;43.356;27.672;2022-10-18T10:18:28;99510.16;;;16.96;45.46
58373;BME280;44177;43.356;27.672;2022-10-18T10:21:00;99504.63;;;16.96;45.78
58373;BME280;44177;43.356;27.672;2022-10-18T10:23:37;99501.19;;;16.99;45.48
58373;BME280;44177;43.356;27.672;2022-10-18T10:26:17;99494.94;;;17.02;45.71
58373;BME280;44177;43.356;27.672;2022-10-18T10:28:44;99492.16;;;17.02;45.49
58373;BME280;44177;43.356;27.672;2022-10-18T10:36:48;99473.47;;;17.12;45.39
58373;BME280;44177;43.356;27.672;2022-10-18T10:39:15;99479.44;;;17.14;45.47
58373;BME280;44177;43.356;27.672;2022-10-18T10:41:46;99469.94;;;17.11;45.52
58373;BME280;44177;43.356;27.672;2022-10-18T10:44:20;99462.00;;;17.10;45.50
58373;BME280;44177;43.356;27.672;2022-10-18T10:46:50;99454.19;;;17.12;45.44
58373;BME280;44177;43.356;27.672;2022-10-18T10:49:24;99454.19;;;17.12;45.54
58373;BME280;44177;43.356;27.672;2022-10-18T10:51:54;99433.28;;;17.11;45.30
58373;BME280;44177;43.356;27.672;2022-10-18T10:54:22;99443.22;;;17.15;45.29
58373;BME280;44177;43.356;27.672;2022-10-18T10:56:58;99431.41;;;17.15;45.43
58373;BME280;44177;43.356;27.672;2022-10-18T10:59:28;99432.56;;;17.14;45.44
58373;BME280;44177;43.356;27.672;2022-10-18T11:04:38;99430.25;;;17.16;45.44
58373;BME280;44177;43.356;27.672;2022-10-18T11:09:57;99420.47;;;17.18;45.20
58373;BME280;44177;43.356;27.672;2022-10-18T11:15:22;99410.97;;;17.16;45.45
58373;BME280;44177;43.356;27.672;2022-10-18T11:20:40;99413.28;;;17.14;45.51
58373;BME280;44177;43.356;27.672;2022-10-18T11:23:10;99410.06;;;17.12;45.33
58373;BME280;44177;43.356;27.672;2022-10-18T11:25:47;99405.38;;;17.12;45.34
58373;BME280;44177;43.356;27.672;2022-10-18T11:28:29;99398.34;;;17.15;45.23
58373;BME280;44177;43.356;27.672;2022-10-18T11:48:00;99369.31;;;17.21;45.01
58373;BME280;44177;43.356;27.672;2022-10-18T11:50:43;99363.78;;;17.21;45.07
58373;BME280;44177;43.356;27.672;2022-10-18T12:04:02;99345.66;;;17.20;45.15
58373;BME280;44177;43.356;27.672;2022-10-18T12:06:35;99334.19;;;17.18;45.43
58373;BME280;44177;43.356;27.672;2022-10-18T12:09:10;99339.41;;;17.23;45.05
58373;BME280;44177;43.356;27.672;2022-10-18T12:11:45;99327.50;;;17.19;45.32
58373;BME280;44177;43.356;27.672;2022-10-18T12:14:23;99334.31;;;17.25;45.04
58373;BME280;44177;43.356;27.672;2022-10-18T12:16:50;99330.00;;;17.24;45.23
58373;BME280;44177;43.356;27.672;2022-10-18T12:19:22;99318.97;;;17.24;45.27
58373;BME280;44177;43.356;27.672;2022-10-18T12:21:50;99330.00;;;17.24;45.27
58373;BME280;44177;43.356;27.672;2022-10-18T12:24:22;99319.69;;;17.21;45.13
58373;BME280;44177;43.356;27.672;2022-10-18T12:26:50;99315.00;;;17.25;45.05
58373;BME280;44177;43.356;27.672;2022-10-18T12:32:13;99311.03;;;17.23;45.41
58373;BME280;44177;43.356;27.672;2022-10-18T12:34:56;99292.81;;;17.18;45.41
58373;BME280;44177;43.356;27.672;2022-10-18T12:40:44;99303.13;;;17.21;45.21
58373;BME280;44177;43.356;27.672;2022-10-18T12:45:50;99283.41;;;17.19;45.27
58373;BME280;44177;43.356;27.672;2022-10-18T12:51:00;99289.78;;;17.23;45.21
58373;BME280;44177;43.356;27.672;2022-10-18T12:53:28;99270.03;;;17.21;45.08
58373;BME280;44177;43.356;27.672;2022-10-18T12:55:54;99282.69;;;17.22;45.50
58373;BME280;44177;43.356;27.672;2022-10-18T12:58:39;99271.66;;;17.22;45.11
58373;BME280;44177;43.356;27.672;2022-10-18T13:01:05;99272.44;;;17.23;45.53
58373;BME280;44177;43.356;27.672;2022-10-18T13:03:53;99266.13;;;17.22;45.35
58373;BME280;44177;43.356;27.672;2022-10-18T13:06:19;99253.44;;;17.17;45.30
58373;BME280;44177;43.356;27.672;2022-10-18T13:08:45;99257.84;;;17.22;45.18
58373;BME280;44177;43.356;27.672;2022-10-18T13:11:41;99258.22;;;17.20;45.21
58373;BME280;44177;43.356;27.672;2022-10-18T13:17:20;99256.97;;;17.18;45.44
58373;BME280;44177;43.356;27.672;2022-10-18T13:25:51;99244.00;;;17.18;45.56
58373;BME280;44177;43.356;27.672;2022-10-18T13:28:41;99249.53;;;17.18;45.50
58373;BME280;44177;43.356;27.672;2022-10-18T13:33:52;99236.09;;;17.17;45.31
58373;BME280;44177;43.356;27.672;2022-10-18T13:39:02;99225.06;;;17.17;45.14
58373;BME280;44177;43.356;27.672;2022-10-18T13:44:34;99228.19;;;17.15;45.36
58373;BME280;44177;43.356;27.672;2022-10-18T13:52:11;99221.06;;;17.14;45.46
58373;BME280;44177;43.356;27.672;2022-10-18T14:06:26;99209.97;;;17.11;45.32
58373;BME280;44177;43.356;27.672;2022-10-18T14:09:20;99198.16;;;17.10;45.42
58373;BME280;44177;43.356;27.672;2022-10-18T14:12:01;99209.19;;;17.10;45.65
58373;BME280;44177;43.356;27.672;2022-10-18T14:14:42;99198.16;;;17.10;45.61
58373;BME280;44177;43.356;27.672;2022-10-18T14:20:22;99193.75;;;17.05;45.48
58373;BME280;44177;43.356;27.672;2022-10-18T14:23:05;99184.25;;;17.03;45.70
58373;BME280;44177;43.356;27.672;2022-10-18T14:25:36;99181.84;;;17.01;45.43
58373;BME280;44177;43.356;27.672;2022-10-18T14:31:04;99170.03;;;17.01;45.61
58373;BME280;44177;43.356;27.672;2022-10-18T14:33:41;99171.56;;;16.98;45.89
58373;BME280;44177;43.356;27.672;2022-10-18T14:38:44;99163.66;;;16.97;45.84
58373;BME280;44177;43.356;27.672;2022-10-18T14:43:36;99157.72;;;16.95;45.58
58373;BME280;44177;43.356;27.672;2022-10-18T14:46:23;99158.41;;;16.92;45.90
58373;BME280;44177;43.356;27.672;2022-10-18T14:49:01;99153.72;;;16.92;45.76
58373;BME280;44177;43.356;27.672;2022-10-18T14:51:34;99153.72;;;16.92;45.89
58373;BME280;44177;43.356;27.672;2022-10-18T14:54:01;99153.28;;;16.90;45.87
58373;BME280;44177;43.356;27.672;2022-10-18T14:56:30;99156.03;;;16.90;45.93
58373;BME280;44177;43.356;27.672;2022-10-18T14:59:02;99141.31;;;16.82;45.90
58373;BME280;44177;43.356;27.672;2022-10-18T15:01:31;99152.84;;;16.88;45.63
58373;BME280;44177;43.356;27.672;2022-10-18T15:04:09;99151.19;;;16.83;46.08
58373;BME280;44177;43.356;27.672;2022-10-18T15:06:41;99149.66;;;16.86;45.98
58373;BME280;44177;43.356;27.672;2022-10-18T15:09:09;99143.34;;;16.85;45.74
58373;BME280;44177;43.356;27.672;2022-10-18T15:11:36;99140.97;;;16.84;45.95
58373;BME280;44177;43.356;27.672;2022-10-18T15:14:03;99144.06;;;16.82;46.03
58373;BME280;44177;43.356;27.672;2022-10-18T15:16:33;99146.84;;;16.82;45.79
58373;BME280;44177;43.356;27.672;2022-10-18T15:19:23;99149.59;;;16.82;46.09
58373;BME280;44177;43.356;27.672;2022-10-18T15:21:55;99146.06;;;16.82;45.96
58373;BME280;44177;43.356;27.672;2022-10-18T15:24:35;99147.59;;;16.79;46.15
58373;BME280;44177;43.356;27.672;2022-10-18T15:27:16;99155.03;;;16.79;46.06
58373;BME280;44177;43.356;27.672;2022-10-18T15:29:45;99151.50;;;16.78;46.02
58373;BME280;44177;43.356;27.672;2022-10-18T15:32:28;99145.91;;;16.74;46.31
58373;BME280;44177;43.356;27.672;2022-10-18T15:35:06;99151.88;;;16.77;46.35
58373;BME280;44177;43.356;27.672;2022-10-18T15:37:40;99151.06;;;16.76;46.31
58373;BME280;44177;43.356;27.672;2022-10-18T15:42:58;99147.84;;;16.74;46.10